Time;durP1;ratioP1;P1;durP2;ratioP2;P2;SDS_P1;SDS_P2;PMS_P1;PMS_P2;Temp;Humidity;BMP_temperature;BMP_pressure;BME280_temperature;BME280_humidity;BME280_pressure;Samples;Min_cycle;Max_cycle;Signal;HPM_P1;HPM_P2
2023/01/08 00:00:31;;;;;;;3.75;2.25;;;;;;;;;;5065990;28;20032;-39
2023/01/08 00:02:57;;;;;;;2.33;1.67;;;;;;;;;;5058605;28;20021;-39
2023/01/08 00:05:23;;;;;;;2.47;1.92;;;;;;;;;;5065301;28;20079;-39
2023/01/08 00:07:49;;;;;;;2.72;1.85;;;;;;;;;;5066082;28;20058;-41
2023/01/08 00:10:15;;;;;;;2.28;1.65;;;;;;;;;;5066104;28;20438;-39
2023/01/08 00:12:41;;;;;;;3.75;2.25;;;;;;;;;;5065434;28;20024;-39
2023/01/08 00:15:07;;;;;;;3.05;2.17;;;;;;;;;;5045657;28;20052;-39
2023/01/08 00:17:33;;;;;;;2.08;1.67;;;;;;;;;;5064965;28;20425;-39
2023/01/08 00:19:59;;;;;;;2.25;1.63;;;;;;;;;;5051394;28;20025;-39
2023/01/08 00:22:25;;;;;;;4.18;2.17;;;;;;;;;;5066368;28;20024;-39
2023/01/08 00:24:51;;;;;;;3.90;1.92;;;;;;;;;;5065299;28;20442;-40
2023/01/08 00:27:17;;;;;;;2.60;1.58;;;;;;;;;;5069711;28;20044;-39
2023/01/08 00:29:43;;;;;;;2.90;1.77;;;;;;;;;;5067658;28;20496;-39
2023/01/08 00:32:09;;;;;;;2.75;2.15;;;;;;;;;;5068151;28;20108;-39
2023/01/08 00:34:35;;;;;;;3.05;2.00;;;;;;;;;;5069608;28;20024;-39
2023/01/08 00:37:01;;;;;;;4.32;2.25;;;;;;;;;;5066315;28;20092;-39
2023/01/08 00:39:27;;;;;;;2.40;2.00;;;;;;;;;;5071885;28;20024;-39
2023/01/08 00:41:53;;;;;;;2.55;1.80;;;;;;;;;;5074567;28;20056;-39
2023/01/08 00:44:19;;;;;;;2.97;1.85;;;;;;;;;;5074913;28;20047;-39
2023/01/08 00:46:45;;;;;;;2.78;2.13;;;;;;;;;;5066838;28;20476;-39
2023/01/08 00:49:11;;;;;;;4.78;2.10;;;;;;;;;;5073682;28;20024;-39
2023/01/08 00:51:37;;;;;;;3.03;1.88;;;;;;;;;;5075424;28;20021;-39
2023/01/08 00:54:03;;;;;;;3.75;2.20;;;;;;;;;;5073766;28;20438;-39
2023/01/08 00:56:29;;;;;;;4.60;2.35;;;;;;;;;;5075056;28;20032;-39
2023/01/08 00:58:55;;;;;;;2.63;1.73;;;;;;;;;;5069706;28;20284;-39
2023/01/08 01:01:21;;;;;;;3.03;1.95;;;;;;;;;;5054212;28;20094;-39
2023/01/08 01:03:47;;;;;;;1.92;1.48;;;;;;;;;;5054467;28;20417;-39
2023/01/08 01:06:13;;;;;;;2.83;2.00;;;;;;;;;;5042404;28;20057;-39
2023/01/08 01:08:40;;;;;;;2.55;2.20;;;;;;;;;;5034455;28;20037;-39
2023/01/08 01:11:10;;;;;;;4.47;1.83;;;;;;;;;;5034135;28;20021;-38
2023/01/08 01:13:37;;;;;;;3.15;2.00;;;;;;;;;;5034530;28;20061;-40
2023/01/08 01:16:03;;;;;;;3.85;2.28;;;;;;;;;;5033817;28;20025;-38
2023/01/08 01:18:29;;;;;;;2.85;1.80;;;;;;;;;;5034381;28;20049;-38
2023/01/08 01:20:55;;;;;;;2.08;1.70;;;;;;;;;;5033615;28;20483;-38
2023/01/08 01:23:21;;;;;;;2.72;1.55;;;;;;;;;;5034262;28;20031;-38
2023/01/08 01:25:47;;;;;;;2.47;1.80;;;;;;;;;;5034412;28;20026;-38
2023/01/08 01:28:14;;;;;;;2.85;1.90;;;;;;;;;;5033232;28;20476;-38
2023/01/08 01:30:40;;;;;;;2.58;1.52;;;;;;;;;;5033568;28;20037;-38
2023/01/08 01:33:06;;;;;;;2.47;1.65;;;;;;;;;;5032906;28;20489;-39
2023/01/08 01:35:32;;;;;;;2.75;2.00;;;;;;;;;;5039464;28;20021;-39
2023/01/08 01:37:58;;;;;;;3.08;2.05;;;;;;;;;;5052745;28;20032;-39
2023/01/08 01:40:23;;;;;;;3.35;2.10;;;;;;;;;;5053811;28;20082;-39
2023/01/08 01:42:49;;;;;;;3.13;1.98;;;;;;;;;;5053559;28;20025;-41
2023/01/08 01:45:20;;;;;;;2.85;2.40;;;;;;;;;;5053047;28;20114;-39
2023/01/08 01:47:48;;;;;;;2.88;1.83;;;;;;;;;;5053987;28;20025;-38
2023/01/08 01:50:16;;;;;;;2.03;1.50;;;;;;;;;;5053645;28;20029;-38
2023/01/08 01:52:44;;;;;;;2.75;1.80;;;;;;;;;;5054237;28;20032;-39
2023/01/08 01:55:11;;;;;;;2.38;1.58;;;;;;;;;;5052391;28;20142;-38
2023/01/08 01:57:38;;;;;;;3.42;1.80;;;;;;;;;;5054289;28;20040;-38
2023/01/08 02:00:08;;;;;;;2.85;2.00;;;;;;;;;;5051568;28;20108;-39
2023/01/08 02:02:34;;;;;;;2.05;1.75;;;;;;;;;;5038965;28;20029;-39
2023/01/08 02:05:00;;;;;;;3.83;1.83;;;;;;;;;;5032977;28;20033;-39
2023/01/08 02:07:39;;;;;;;3.88;1.83;;;;;;;;;;5053548;28;20363;-38
2023/01/08 02:10:04;;;;;;;3.38;2.03;;;;;;;;;;5052219;28;20024;-38
2023/01/08 02:12:37;;;;;;;3.03;1.60;;;;;;;;;;5053725;28;20025;-39
2023/01/08 02:15:20;;;;;;;2.80;1.80;;;;;;;;;;5052350;28;20029;-39
2023/01/08 02:17:54;;;;;;;2.45;1.77;;;;;;;;;;5045587;28;20021;-39
2023/01/08 02:20:23;;;;;;;2.55;1.90;;;;;;;;;;5053435;28;20037;-39
2023/01/08 02:22:55;;;;;;;2.20;1.92;;;;;;;;;;5053188;28;20542;-40
2023/01/08 02:25:32;;;;;;;2.35;1.95;;;;;;;;;;5053157;28;20029;-39
2023/01/08 02:28:01;;;;;;;5.65;2.92;;;;;;;;;;5071343;28;20115;-39
2023/01/08 02:30:27;;;;;;;2.72;1.75;;;;;;;;;;5093677;28;20021;-38
2023/01/08 02:32:53;;;;;;;2.15;1.70;;;;;;;;;;5092088;28;20027;-40
2023/01/08 02:35:19;;;;;;;2.35;1.85;;;;;;;;;;5090053;28;20016;-38
2023/01/08 02:37:45;;;;;;;2.40;1.60;;;;;;;;;;5073250;28;20020;-38
2023/01/08 02:40:11;;;;;;;2.15;1.67;;;;;;;;;;5071863;28;20032;-39
2023/01/08 02:42:55;;;;;;;3.10;1.70;;;;;;;;;;5072961;28;20081;-38
2023/01/08 02:45:21;;;;;;;1.80;1.40;;;;;;;;;;5072847;28;20094;-38
2023/01/08 02:48:04;;;;;;;3.60;1.90;;;;;;;;;;5072123;28;20025;-39
2023/01/08 02:50:33;;;;;;;2.25;1.80;;;;;;;;;;5073037;28;20035;-39
2023/01/08 02:52:59;;;;;;;4.07;1.90;;;;;;;;;;5071279;28;20074;-39
2023/01/08 02:55:25;;;;;;;2.75;1.98;;;;;;;;;;5072536;28;20025;-39
2023/01/08 02:57:52;;;;;;;1.92;1.70;;;;;;;;;;5049042;28;20075;-40
2023/01/08 03:00:18;;;;;;;1.65;1.52;;;;;;;;;;5068124;28;20108;-38
2023/01/08 03:02:45;;;;;;;1.90;1.60;;;;;;;;;;5044598;28;20052;-38
2023/01/08 03:05:23;;;;;;;3.00;1.90;;;;;;;;;;5050893;28;20032;-38
2023/01/08 03:07:49;;;;;;;2.25;1.50;;;;;;;;;;5052512;28;20048;-39
2023/01/08 03:10:15;;;;;;;2.15;1.65;;;;;;;;;;5051763;28;20021;-38
2023/01/08 03:12:44;;;;;;;2.35;1.65;;;;;;;;;;5052500;28;20023;-38
2023/01/08 03:15:12;;;;;;;3.05;1.70;;;;;;;;;;5050767;28;20029;-38
2023/01/08 03:17:44;;;;;;;2.47;1.83;;;;;;;;;;5052204;28;20024;-38
2023/01/08 03:20:14;;;;;;;2.92;1.80;;;;;;;;;;5051080;28;20033;-38
2023/01/08 03:22:41;;;;;;;2.28;1.67;;;;;;;;;;5052471;28;20025;-38
2023/01/08 03:25:08;;;;;;;2.78;1.58;;;;;;;;;;5050796;28;20021;-38
2023/01/08 03:27:37;;;;;;;2.10;1.52;;;;;;;;;;5056812;28;20025;-38
2023/01/08 03:30:04;;;;;;;2.67;1.60;;;;;;;;;;5062942;28;20050;-38
2023/01/08 03:32:31;;;;;;;2.00;1.70;;;;;;;;;;5072054;28;20404;-38
2023/01/08 03:34:59;;;;;;;2.78;1.60;;;;;;;;;;5071388;28;20052;-38
2023/01/08 03:37:27;;;;;;;2.92;2.00;;;;;;;;;;5092470;28;20552;-39
2023/01/08 03:40:15;;;;;;;2.33;1.77;;;;;;;;;;5090934;28;20473;-38
2023/01/08 03:42:41;;;;;;;2.75;1.65;;;;;;;;;;5092435;28;20024;-38
2023/01/08 03:45:07;;;;;;;2.47;1.75;;;;;;;;;;5091112;28;20792;-38
2023/01/08 03:47:35;;;;;;;1.67;1.30;;;;;;;;;;5092112;28;20028;-38
2023/01/08 03:50:02;;;;;;;2.03;1.35;;;;;;;;;;5091039;28;20039;-38
2023/01/08 03:52:29;;;;;;;2.30;1.70;;;;;;;;;;5092278;28;20055;-38
2023/01/08 03:54:55;;;;;;;2.30;1.70;;;;;;;;;;5090901;28;20078;-39
2023/01/08 03:57:22;;;;;;;2.53;1.75;;;;;;;;;;5065379;28;20417;-38
2023/01/08 03:59:48;;;;;;;2.35;1.70;;;;;;;;;;5090076;28;20036;-38
2023/01/08 04:02:14;;;;;;;2.55;1.63;;;;;;;;;;5091386;28;20020;-38
2023/01/08 04:04:40;;;;;;;1.92;1.70;;;;;;;;;;5091760;28;20028;-40
2023/01/08 04:07:07;;;;;;;2.03;1.50;;;;;;;;;;5064323;28;20041;-39
2023/01/08 04:09:33;;;;;;;2.90;1.42;;;;;;;;;;5050494;28;20040;-38
2023/01/08 04:11:59;;;;;;;2.25;1.92;;;;;;;;;;5050989;28;20032;-38
2023/01/08 04:14:25;;;;;;;3.40;1.77;;;;;;;;;;5051259;28;20025;-40
2023/01/08 04:16:51;;;;;;;2.10;1.50;;;;;;;;;;5051150;28;20112;-40
2023/01/08 04:19:17;;;;;;;2.88;1.92;;;;;;;;;;5050926;28;20024;-38
2023/01/08 04:21:43;;;;;;;2.63;1.85;;;;;;;;;;5051761;28;20025;-39
2023/01/08 04:24:09;;;;;;;2.40;1.67;;;;;;;;;;5050464;28;20025;-38
2023/01/08 04:26:35;;;;;;;3.33;2.08;;;;;;;;;;5054309;28;20036;-38
2023/01/08 04:29:04;;;;;;;2.33;1.35;;;;;;;;;;5050421;28;20025;-38
2023/01/08 04:31:30;;;;;;;2.05;1.63;;;;;;;;;;5050997;28;20025;-38
2023/01/08 04:33:56;;;;;;;4.05;1.67;;;;;;;;;;5050234;28;20029;-38
2023/01/08 04:36:22;;;;;;;2.05;1.65;;;;;;;;;;5076234;28;20081;-38
2023/01/08 04:38:48;;;;;;;2.03;1.38;;;;;;;;;;5091250;28;20104;-39
2023/01/08 04:41:17;;;;;;;1.60;1.50;;;;;;;;;;5091099;28;20354;-38
2023/01/08 04:43:43;;;;;;;2.50;1.67;;;;;;;;;;5091319;28;20067;-38
2023/01/08 04:46:09;;;;;;;2.97;1.80;;;;;;;;;;5091164;28;20048;-40
2023/01/08 04:48:35;;;;;;;1.85;1.58;;;;;;;;;;5090962;28;20413;-38
2023/01/08 04:51:02;;;;;;;2.25;1.27;;;;;;;;;;5090940;28;20036;-38
2023/01/08 04:53:29;;;;;;;2.88;1.40;;;;;;;;;;5091219;28;20079;-38
2023/01/08 04:55:55;;;;;;;2.10;1.52;;;;;;;;;;5090813;28;20028;-39
2023/01/08 04:58:21;;;;;;;2.50;1.38;;;;;;;;;;5074689;28;20475;-40
2023/01/08 05:00:47;;;;;;;2.20;1.38;;;;;;;;;;5091326;28;20033;-39
2023/01/08 05:03:13;;;;;;;1.83;1.17;;;;;;;;;;5090292;28;20023;-38
2023/01/08 05:05:39;;;;;;;1.60;1.30;;;;;;;;;;5090877;28;20056;-40
2023/01/08 05:08:05;;;;;;;2.28;1.50;;;;;;;;;;5090265;28;20028;-40
2023/01/08 05:10:31;;;;;;;2.35;1.30;;;;;;;;;;5093191;28;20027;-40
2023/01/08 05:12:58;;;;;;;2.05;1.20;;;;;;;;;;5093469;28;20032;-40
2023/01/08 05:15:24;;;;;;;2.20;1.42;;;;;;;;;;5095127;28;20038;-40
2023/01/08 05:17:57;;;;;;;2.05;1.30;;;;;;;;;;5074151;28;20103;-39
2023/01/08 05:20:23;;;;;;;2.30;1.30;;;;;;;;;;5074720;28;20036;-40
2023/01/08 05:22:49;;;;;;;2.20;1.65;;;;;;;;;;5073963;28;20024;-41
2023/01/08 05:25:15;;;;;;;3.03;1.40;;;;;;;;;;5086626;28;20477;-40
2023/01/08 05:27:41;;;;;;;2.05;1.50;;;;;;;;;;5078568;28;20039;-40
2023/01/08 05:30:07;;;;;;;2.08;1.48;;;;;;;;;;5072991;28;20103;-40
2023/01/08 05:32:33;;;;;;;1.55;1.00;;;;;;;;;;5074459;28;20020;-40
2023/01/08 05:34:59;;;;;;;1.55;1.25;;;;;;;;;;5073493;28;20023;-40
2023/01/08 05:37:25;;;;;;;1.90;1.40;;;;;;;;;;5075715;28;20025;-40
2023/01/08 05:39:51;;;;;;;2.85;1.10;;;;;;;;;;5072933;28;20465;-41
2023/01/08 05:42:17;;;;;;;2.05;1.27;;;;;;;;;;5073980;28;20028;-40
2023/01/08 05:44:43;;;;;;;2.80;1.52;;;;;;;;;;5073508;28;20469;-40
2023/01/08 05:47:09;;;;;;;3.85;1.48;;;;;;;;;;5073371;28;20666;-40
2023/01/08 05:49:35;;;;;;;1.33;1.08;;;;;;;;;;5073703;28;20063;-40
2023/01/08 05:52:01;;;;;;;1.13;0.93;;;;;;;;;;5073264;28;20060;-40
2023/01/08 05:54:27;;;;;;;1.70;1.00;;;;;;;;;;5073352;28;20021;-40
2023/01/08 05:56:53;;;;;;;2.33;1.33;;;;;;;;;;5065047;28;20067;-41
2023/01/08 05:59:19;;;;;;;1.77;1.10;;;;;;;;;;5073143;28;20488;-40
2023/01/08 06:01:45;;;;;;;3.08;1.10;;;;;;;;;;5059116;28;20033;-40
2023/01/08 06:04:11;;;;;;;2.83;1.30;;;;;;;;;;5052678;28;20096;-40
2023/01/08 06:06:37;;;;;;;1.33;0.98;;;;;;;;;;5052955;28;20160;-40
2023/01/08 06:09:03;;;;;;;2.08;0.90;;;;;;;;;;5052573;28;20079;-41
2023/01/08 06:11:29;;;;;;;1.38;1.00;;;;;;;;;;5053619;28;20037;-40
2023/01/08 06:13:55;;;;;;;1.83;1.00;;;;;;;;;;5052351;28;20025;-40
2023/01/08 06:16:21;;;;;;;2.67;1.05;;;;;;;;;;5053600;28;20017;-40
2023/01/08 06:18:47;;;;;;;2.72;1.30;;;;;;;;;;5064963;28;20461;-40
2023/01/08 06:21:13;;;;;;;1.20;1.00;;;;;;;;;;5092037;28;20085;-40
2023/01/08 06:23:39;;;;;;;1.23;0.90;;;;;;;;;;5093258;28;20028;-40
2023/01/08 06:26:05;;;;;;;1.50;1.15;;;;;;;;;;5092821;28;20024;-41
2023/01/08 06:28:31;;;;;;;1.05;0.95;;;;;;;;;;5092912;28;20085;-40
2023/01/08 06:30:58;;;;;;;1.48;0.90;;;;;;;;;;5076806;28;20378;-40
2023/01/08 06:33:24;;;;;;;9.85;1.35;;;;;;;;;;5052899;28;20018;-40
2023/01/08 06:35:50;;;;;;;1.17;0.95;;;;;;;;;;5061365;28;20055;-42
2023/01/08 06:38:19;;;;;;;2.08;1.00;;;;;;;;;;5054239;28;20052;-41
2023/01/08 06:40:46;;;;;;;1.17;0.85;;;;;;;;;;5073137;28;20591;-40
2023/01/08 06:43:12;;;;;;;2.08;1.00;;;;;;;;;;5071845;28;20811;-41
2023/01/08 06:45:38;;;;;;;2.13;1.00;;;;;;;;;;5067666;28;20028;-40
2023/01/08 06:48:05;;;;;;;1.52;1.30;;;;;;;;;;5051723;28;20039;-40
2023/01/08 06:50:31;;;;;;;1.92;0.90;;;;;;;;;;5053084;28;20029;-40
2023/01/08 06:52:57;;;;;;;1.00;0.90;;;;;;;;;;5083142;28;20433;-39
2023/01/08 06:55:24;;;;;;;1.92;0.95;;;;;;;;;;5088993;28;20026;-38
2023/01/08 06:57:57;;;;;;;2.65;1.02;;;;;;;;;;5072648;28;20074;-40
2023/01/08 07:00:24;;;;;;;1.42;0.98;;;;;;;;;;5072547;28;20477;-38
2023/01/08 07:02:51;;;;;;;1.42;0.80;;;;;;;;;;5072170;28;20024;-39
2023/01/08 07:05:17;;;;;;;0.82;0.70;;;;;;;;;;5070424;28;20049;-39
2023/01/08 07:07:43;;;;;;;0.70;0.63;;;;;;;;;;5052852;28;20029;-38
2023/01/08 07:10:09;;;;;;;1.30;0.88;;;;;;;;;;5051171;28;20029;-38
2023/01/08 07:12:35;;;;;;;1.98;0.90;;;;;;;;;;5052574;28;20060;-39
2023/01/08 07:15:01;;;;;;;1.95;0.70;;;;;;;;;;5057233;28;20059;-38
2023/01/08 07:17:27;;;;;;;1.65;1.08;;;;;;;;;;5071803;28;20020;-38
2023/01/08 07:19:53;;;;;;;1.35;0.77;;;;;;;;;;5071113;28;20488;-39
2023/01/08 07:22:20;;;;;;;1.30;1.00;;;;;;;;;;5072708;28;20053;-38
2023/01/08 07:24:46;;;;;;;1.33;0.93;;;;;;;;;;5071465;28;20442;-38
2023/01/08 07:27:12;;;;;;;1.65;0.90;;;;;;;;;;5070981;28;20032;-38
2023/01/08 07:29:37;;;;;;;1.85;1.05;;;;;;;;;;5071828;28;20101;-38
2023/01/08 07:32:03;;;;;;;0.80;0.60;;;;;;;;;;5077710;28;20027;-38
2023/01/08 07:34:29;;;;;;;1.30;0.90;;;;;;;;;;5083559;28;20028;-39
2023/01/08 07:36:55;;;;;;;1.40;1.00;;;;;;;;;;5059180;28;20066;-41
2023/01/08 07:39:21;;;;;;;1.13;0.77;;;;;;;;;;5051363;28;20025;-40
2023/01/08 07:41:47;;;;;;;1.23;0.77;;;;;;;;;;5061934;28;20024;-39
2023/01/08 07:44:13;;;;;;;0.70;0.65;;;;;;;;;;5071135;28;20025;-39
2023/01/08 07:46:39;;;;;;;1.40;0.80;;;;;;;;;;5071657;28;20020;-40
2023/01/08 07:49:05;;;;;;;1.52;0.70;;;;;;;;;;5074741;28;20099;-41
2023/01/08 07:51:31;;;;;;;0.70;0.60;;;;;;;;;;5082957;28;20107;-39
2023/01/08 07:53:57;;;;;;;2.10;1.17;;;;;;;;;;5078489;28;20051;-41
2023/01/08 07:56:24;;;;;;;1.70;1.00;;;;;;;;;;5080932;28;20027;-38
2023/01/08 07:58:50;;;;;;;1.05;0.80;;;;;;;;;;5085057;28;20095;-45
2023/01/08 08:01:16;;;;;;;1.00;0.70;;;;;;;;;;5091681;28;20024;-40
2023/01/08 08:03:43;;;;;;;1.02;0.60;;;;;;;;;;5078829;28;20028;-40
2023/01/08 08:06:08;;;;;;;1.50;0.80;;;;;;;;;;5073191;28;20674;-41
2023/01/08 08:08:35;;;;;;;0.95;0.63;;;;;;;;;;5081111;28;20021;-40
2023/01/08 08:11:01;;;;;;;4.00;1.10;;;;;;;;;;5073539;28;20379;-41
2023/01/08 08:13:27;;;;;;;0.98;0.70;;;;;;;;;;5079778;28;20488;-40
2023/01/08 08:15:53;;;;;;;1.95;0.60;;;;;;;;;;5077929;28;20036;-41
2023/01/08 08:18:19;;;;;;;0.47;0.47;;;;;;;;;;5073688;28;20039;-41
2023/01/08 08:20:46;;;;;;;0.80;0.70;;;;;;;;;;5076565;28;20040;-40
2023/01/08 08:23:13;;;;;;;1.50;0.60;;;;;;;;;;5059561;28;20044;-40
2023/01/08 08:25:39;;;;;;;0.68;0.60;;;;;;;;;;5065301;28;20037;-41
2023/01/08 08:28:05;;;;;;;1.02;0.73;;;;;;;;;;5069034;28;20454;-41
2023/01/08 08:30:32;;;;;;;0.60;0.55;;;;;;;;;;5060782;28;20025;-41
2023/01/08 08:33:02;;;;;;;0.90;0.60;;;;;;;;;;5058694;28;20025;-40
2023/01/08 08:35:28;;;;;;;1.10;0.80;;;;;;;;;;5066833;28;20036;-41
2023/01/08 08:37:54;;;;;;;0.95;0.93;;;;;;;;;;5069470;28;20366;-41
2023/01/08 08:40:20;;;;;;;0.65;0.63;;;;;;;;;;5069948;28;20519;-41
2023/01/08 08:42:46;;;;;;;0.85;0.73;;;;;;;;;;5071031;28;20032;-40
2023/01/08 08:45:13;;;;;;;0.90;0.60;;;;;;;;;;5084169;28;20029;-41
2023/01/08 08:47:39;;;;;;;1.08;0.60;;;;;;;;;;5075202;28;20046;-40
2023/01/08 08:50:05;;;;;;;0.90;0.50;;;;;;;;;;5064301;28;20085;-40
2023/01/08 08:52:32;;;;;;;2.10;0.90;;;;;;;;;;5073316;28;20047;-41
2023/01/08 08:54:58;;;;;;;0.50;0.50;;;;;;;;;;5075180;28;20123;-40
2023/01/08 08:57:25;;;;;;;0.95;0.60;;;;;;;;;;5070072;28;20075;-41
2023/01/08 08:59:51;;;;;;;1.00;0.80;;;;;;;;;;5059954;28;20029;-41
2023/01/08 09:02:17;;;;;;;0.88;0.43;;;;;;;;;;5066896;28;20074;-40
2023/01/08 09:04:43;;;;;;;1.10;0.60;;;;;;;;;;5072539;28;20024;-40
2023/01/08 09:07:09;;;;;;;1.52;0.50;;;;;;;;;;5051616;28;20454;-41
2023/01/08 09:09:35;;;;;;;1.13;0.60;;;;;;;;;;5072469;28;20024;-40
2023/01/08 09:12:02;;;;;;;1.98;0.50;;;;;;;;;;5072552;28;20140;-40
2023/01/08 09:14:28;;;;;;;0.65;0.65;;;;;;;;;;5075457;28;20032;-40
2023/01/08 09:16:54;;;;;;;0.93;0.50;;;;;;;;;;5072598;28;20024;-40
2023/01/08 09:19:21;;;;;;;0.95;0.60;;;;;;;;;;5073421;28;20029;-40
2023/01/08 09:21:47;;;;;;;0.88;0.60;;;;;;;;;;5077253;28;20442;-40
2023/01/08 09:24:13;;;;;;;0.73;0.60;;;;;;;;;;5073628;28;20024;-40
2023/01/08 09:26:39;;;;;;;0.80;0.60;;;;;;;;;;5072245;28;20028;-41
2023/01/08 09:29:05;;;;;;;4.70;0.55;;;;;;;;;;5080687;28;20024;-40
2023/01/08 09:31:31;;;;;;;0.65;0.50;;;;;;;;;;5077786;28;20016;-40
2023/01/08 09:33:57;;;;;;;1.13;0.77;;;;;;;;;;5083722;28;20518;-40
2023/01/08 09:36:23;;;;;;;0.98;0.65;;;;;;;;;;5083973;28;20028;-39
2023/01/08 09:38:49;;;;;;;1.52;0.70;;;;;;;;;;5083724;28;20032;-42
2023/01/08 09:41:35;;;;;;;4.35;0.70;;;;;;;;;;5083234;28;20111;-38
2023/01/08 09:44:03;;;;;;;2.25;0.60;;;;;;;;;;5073770;28;20086;-38
2023/01/08 09:46:29;;;;;;;3.63;1.02;;;;;;;;;;5083989;28;20073;-39
2023/01/08 09:48:57;;;;;;;3.40;0.70;;;;;;;;;;5072678;28;20029;-40
2023/01/08 09:51:33;;;;;;;3.10;1.08;;;;;;;;;;5073610;28;20116;-39
2023/01/08 09:53:59;;;;;;;1.58;0.50;;;;;;;;;;5080199;28;20043;-39
2023/01/08 09:56:25;;;;;;;0.80;0.50;;;;;;;;;;5081998;28;20016;-39
2023/01/08 09:58:55;;;;;;;3.83;0.90;;;;;;;;;;5079289;28;20025;-40
2023/01/08 10:01:23;;;;;;;3.25;0.90;;;;;;;;;;5077563;28;20025;-39
2023/01/08 10:04:07;;;;;;;1.40;0.60;;;;;;;;;;5085056;28;20100;-40
2023/01/08 10:06:33;;;;;;;3.30;0.68;;;;;;;;;;5080814;28;20040;-39
2023/01/08 10:08:59;;;;;;;3.42;0.70;;;;;;;;;;5085061;28;20032;-38
2023/01/08 10:11:28;;;;;;;3.22;0.70;;;;;;;;;;5072894;28;20051;-38
2023/01/08 10:13:55;;;;;;;1.90;0.63;;;;;;;;;;5074913;28;20085;-39
2023/01/08 10:16:27;;;;;;;1.35;0.80;;;;;;;;;;5078786;28;20023;-39
2023/01/08 10:18:53;;;;;;;0.98;0.50;;;;;;;;;;5081483;28;20100;-39
2023/01/08 10:21:19;;;;;;;1.38;0.50;;;;;;;;;;5084095;28;20024;-38
2023/01/08 10:23:50;;;;;;;2.13;0.60;;;;;;;;;;5065901;28;20028;-39
2023/01/08 10:26:24;;;;;;;1.00;0.73;;;;;;;;;;5081960;28;20077;-39
2023/01/08 10:28:50;;;;;;;1.23;0.70;;;;;;;;;;5077364;28;20043;-40
2023/01/08 10:31:16;;;;;;;2.33;0.90;;;;;;;;;;5082073;28;20028;-38
2023/01/08 10:33:44;;;;;;;1.73;0.60;;;;;;;;;;5082356;28;20384;-38
2023/01/08 10:36:12;;;;;;;2.53;0.80;;;;;;;;;;5080083;28;20154;-38
2023/01/08 10:38:47;;;;;;;2.03;0.47;;;;;;;;;;5072922;28;20025;-37
2023/01/08 10:41:14;;;;;;;2.50;0.80;;;;;;;;;;5084860;28;20050;-38
2023/01/08 10:43:54;;;;;;;1.05;0.73;;;;;;;;;;5092505;28;20388;-38
2023/01/08 10:46:24;;;;;;;1.17;0.52;;;;;;;;;;5075492;28;20366;-38
2023/01/08 10:48:55;;;;;;;1.05;0.60;;;;;;;;;;5083853;28;20020;-39
2023/01/08 10:51:22;;;;;;;0.98;0.50;;;;;;;;;;5072470;28;20060;-38
2023/01/08 10:53:48;;;;;;;1.48;0.68;;;;;;;;;;5085214;28;20069;-39
2023/01/08 10:56:22;;;;;;;1.30;0.60;;;;;;;;;;5080771;28;20074;-38
2023/01/08 10:58:48;;;;;;;1.25;0.75;;;;;;;;;;5073051;28;20024;-38
2023/01/08 11:01:24;;;;;;;1.48;0.60;;;;;;;;;;5082341;28;20038;-38
2023/01/08 11:03:51;;;;;;;1.48;0.80;;;;;;;;;;5082269;28;20035;-40
2023/01/08 11:06:20;;;;;;;2.13;0.80;;;;;;;;;;5082710;28;20066;-38
2023/01/08 11:08:50;;;;;;;0.75;0.50;;;;;;;;;;5080238;28;20036;-38
2023/01/08 11:11:17;;;;;;;2.75;0.63;;;;;;;;;;5082971;28;20035;-39
2023/01/08 11:13:51;;;;;;;0.52;0.50;;;;;;;;;;5081494;28;20377;-38
2023/01/08 11:16:17;;;;;;;1.90;0.60;;;;;;;;;;5081135;28;20031;-38
2023/01/08 11:18:48;;;;;;;1.20;0.55;;;;;;;;;;5065850;28;20104;-38
2023/01/08 11:21:19;;;;;;;0.50;0.40;;;;;;;;;;5069585;28;20112;-39
2023/01/08 11:23:46;;;;;;;1.38;0.80;;;;;;;;;;5079424;28;20029;-39
2023/01/08 11:26:15;;;;;;;2.00;1.15;;;;;;;;;;5088345;28;20028;-39
2023/01/08 11:28:59;;;;;;;0.98;0.50;;;;;;;;;;5074372;28;20447;-38
2023/01/08 11:31:33;;;;;;;0.88;0.50;;;;;;;;;;5080180;28;20111;-38
2023/01/08 11:34:05;;;;;;;0.90;0.85;;;;;;;;;;5078256;28;20036;-39
2023/01/08 11:36:34;;;;;;;1.70;0.60;;;;;;;;;;5084601;28;20073;-38
2023/01/08 11:39:01;;;;;;;1.65;0.52;;;;;;;;;;5076987;28;20145;-39
2023/01/08 11:41:39;;;;;;;1.77;0.55;;;;;;;;;;5081748;28;20036;-39
2023/01/08 11:44:15;;;;;;;3.05;0.40;;;;;;;;;;5081242;28;20539;-38
2023/01/08 11:46:47;;;;;;;4.07;0.68;;;;;;;;;;5074942;28;20488;-38
2023/01/08 11:49:13;;;;;;;;;;;;;;;;;;5082525;28;20028;-38
2023/01/08 11:51:56;;;;;;;9.23;1.15;;;;;;;;;;5082789;28;19995;-39
2023/01/08 11:54:31;;;;;;;8.38;1.58;;;;;;;;;;5072076;28;20032;-37
2023/01/08 11:57:06;;;;;;;6.78;0.65;;;;;;;;;;5071401;28;20036;-38
2023/01/08 11:59:44;;;;;;;2.05;0.73;;;;;;;;;;5072352;28;20051;-38
2023/01/08 12:02:16;;;;;;;3.45;0.60;;;;;;;;;;5071683;28;20020;-39
2023/01/08 12:04:42;;;;;;;;;;;;;;;;;;5069390;28;20051;-39
2023/01/08 12:07:11;;;;;;;3.75;1.00;;;;;;;;;;5068069;28;19916;-39
2023/01/08 12:09:47;;;;;;;2.00;0.65;;;;;;;;;;5059711;28;20082;-39
2023/01/08 12:12:18;;;;;;;1.00;0.68;;;;;;;;;;5068796;28;20032;-39
2023/01/08 12:14:53;;;;;;;4.20;0.60;;;;;;;;;;5069698;28;20045;-39
2023/01/08 12:17:19;;;;;;;1.63;0.70;;;;;;;;;;5068081;28;20370;-39
2023/01/08 12:19:57;;;;;;;1.63;0.70;;;;;;;;;;5066158;28;20044;-39
2023/01/08 12:22:36;;;;;;;2.08;0.82;;;;;;;;;;5081043;28;20082;-40
2023/01/08 12:25:02;;;;;;;2.58;0.88;;;;;;;;;;5080996;28;20064;-39
2023/01/08 12:27:34;;;;;;;6.85;1.25;;;;;;;;;;5074654;28;20063;-41
2023/01/08 12:30:00;;;;;;;;;;;;;;;;;;5074550;28;20547;-40
2023/01/08 12:32:36;;;;;;;5.80;0.63;;;;;;;;;;5076438;28;19983;-39
2023/01/08 12:35:20;;;;;;;8.43;2.28;;;;;;;;;;5075745;28;20477;-40
2023/01/08 12:37:59;;;;;;;16.50;4.80;;;;;;;;;;5078956;28;20033;-39
2023/01/08 12:40:43;;;;;;;26.52;4.97;;;;;;;;;;5084350;28;20064;-41
2023/01/08 12:43:13;;;;;;;28.90;6.13;;;;;;;;;;5058366;28;20953;-40
2023/01/08 12:45:41;;;;;;;36.58;6.22;;;;;;;;;;5084556;28;20036;-40
2023/01/08 12:48:10;;;;;;;31.30;6.65;;;;;;;;;;5076158;28;20033;-40
2023/01/08 12:50:51;;;;;;;35.10;5.85;;;;;;;;;;5083703;28;20542;-40
2023/01/08 12:53:18;;;;;;;26.90;6.97;;;;;;;;;;5081433;28;20020;-40
2023/01/08 12:55:47;;;;;;;24.35;6.25;;;;;;;;;;5083554;28;20037;-41
2023/01/08 12:58:42;;;;;;;28.63;6.20;;;;;;;;;;5064667;28;20016;-39
2023/01/08 13:01:16;;;;;;;15.00;3.65;;;;;;;;;;5057441;28;20118;-41
2023/01/08 13:03:43;;;;;;;19.48;4.75;;;;;;;;;;5079545;28;20024;-40
2023/01/08 13:06:11;;;;;;;10.63;2.85;;;;;;;;;;5082410;28;20048;-39
2023/01/08 13:08:38;;;;;;;11.60;3.00;;;;;;;;;;5073196;28;20389;-40
2023/01/08 13:11:04;;;;;;;9.88;3.13;;;;;;;;;;5080784;28;20036;-40
2023/01/08 13:13:35;;;;;;;11.25;3.28;;;;;;;;;;5078604;28;20077;-41
2023/01/08 13:16:13;;;;;;;9.02;2.70;;;;;;;;;;5082259;28;20048;-40
2023/01/08 13:18:39;;;;;;;9.80;2.60;;;;;;;;;;5072708;28;20039;-40
2023/01/08 13:21:06;;;;;;;14.85;3.13;;;;;;;;;;5086753;28;20127;-40
2023/01/08 13:23:34;;;;;;;16.92;3.72;;;;;;;;;;5079038;28;20024;-40
2023/01/08 13:26:01;;;;;;;9.07;2.65;;;;;;;;;;5060637;28;20396;-39
2023/01/08 13:28:30;;;;;;;11.40;2.67;;;;;;;;;;5069096;28;20028;-40
2023/01/08 13:31:07;;;;;;;7.97;1.90;;;;;;;;;;5072982;28;20033;-40
2023/01/08 13:33:36;;;;;;;8.48;2.10;;;;;;;;;;5077648;28;20055;-40
2023/01/08 13:36:16;;;;;;;7.35;2.15;;;;;;;;;;5077315;28;20402;-40
2023/01/08 13:38:43;;;;;;;11.05;2.08;;;;;;;;;;5065195;28;20024;-40
2023/01/08 13:41:25;;;;;;;13.45;1.92;;;;;;;;;;5081727;28;20155;-40
2023/01/08 13:43:57;;;;;;;4.65;1.73;;;;;;;;;;5070092;28;20020;-43
2023/01/08 13:46:24;;;;;;;18.52;3.50;;;;;;;;;;5074968;28;20492;-42
2023/01/08 13:48:58;;;;;;;9.93;1.77;;;;;;;;;;5076385;28;20040;-43
2023/01/08 13:51:44;;;;;;;3.97;1.42;;;;;;;;;;5084366;28;20118;-41
2023/01/08 13:54:17;;;;;;;5.60;1.63;;;;;;;;;;5061239;28;20100;-41
2023/01/08 13:56:44;;;;;;;10.10;2.42;;;;;;;;;;5081552;28;20036;-42
2023/01/08 13:59:20;;;;;;;7.72;1.77;;;;;;;;;;5078293;28;20623;-41
2023/01/08 14:01:56;;;;;;;7.78;2.33;;;;;;;;;;5071607;28;20044;-40
2023/01/08 14:04:23;;;;;;;12.82;1.70;;;;;;;;;;5084301;28;20024;-40
2023/01/08 14:06:49;;;;;;;4.40;1.70;;;;;;;;;;5076651;28;20055;-40
2023/01/08 14:09:22;;;;;;;5.63;1.85;;;;;;;;;;5086060;28;20073;-39
2023/01/08 14:11:49;;;;;;;4.97;2.00;;;;;;;;;;5082577;28;20441;-39
2023/01/08 14:14:17;;;;;;;5.57;1.85;;;;;;;;;;5081337;28;20035;-39
2023/01/08 14:16:43;;;;;;;6.78;1.50;;;;;;;;;;5088842;28;20182;-39
2023/01/08 14:19:16;;;;;;;13.52;2.38;;;;;;;;;;5079713;28;20040;-39
2023/01/08 14:21:49;;;;;;;5.07;1.83;;;;;;;;;;5075483;28;20097;-39
2023/01/08 14:24:16;;;;;;;5.63;1.92;;;;;;;;;;5082921;28;20044;-39
2023/01/08 14:26:45;;;;;;;3.03;1.60;;;;;;;;;;5082656;28;20035;-39
2023/01/08 14:29:13;;;;;;;4.85;1.10;;;;;;;;;;5086814;28;20031;-39
2023/01/08 14:31:44;;;;;;;3.42;1.90;;;;;;;;;;5074325;28;20024;-39
2023/01/08 14:34:11;;;;;;;4.50;1.60;;;;;;;;;;5082817;28;20729;-38
2023/01/08 14:36:37;;;;;;;2.97;1.00;;;;;;;;;;5078238;28;20062;-39
2023/01/08 14:39:09;;;;;;;4.20;1.00;;;;;;;;;;5079500;28;20035;-39
2023/01/08 14:44:22;;;;;;;4.25;1.75;;;;;;;;;;5082858;28;20385;-39
2023/01/08 14:46:48;;;;;;;4.30;1.83;;;;;;;;;;5083095;28;20028;-39
2023/01/08 14:49:20;;;;;;;4.85;1.15;;;;;;;;;;5079204;28;20103;-39
2023/01/08 14:51:46;;;;;;;4.10;1.38;;;;;;;;;;5078282;28;20028;-39